sensor_id;sensor_type;location;lat;lon;timestamp;temperature;humidity
14236;DHT22;7202;50.718;7.072;2023-04-25T00:01:10;8.60;99.90
14236;DHT22;7202;50.718;7.072;2023-04-25T00:03:40;8.60;99.90
14236;DHT22;7202;50.718;7.072;2023-04-25T00:06:09;8.60;99.90
14236;DHT22;7202;50.718;7.072;2023-04-25T00:08:37;8.60;99.90
14236;DHT22;7202;50.718;7.072;2023-04-25T00:11:06;8.60;99.90
14236;DHT22;7202;50.718;7.072;2023-04-25T00:13:35;8.60;99.90
14236;DHT22;7202;50.718;7.072;2023-04-25T00:16:05;8.60;99.90
14236;DHT22;7202;50.718;7.072;2023-04-25T00:18:34;8.60;99.90
14236;DHT22;7202;50.718;7.072;2023-04-25T00:21:03;8.50;99.90
14236;DHT22;7202;50.718;7.072;2023-04-25T00:23:33;8.50;99.90
14236;DHT22;7202;50.718;7.072;2023-04-25T00:26:03;8.50;99.90
14236;DHT22;7202;50.718;7.072;2023-04-25T00:28:32;8.50;99.90
14236;DHT22;7202;50.718;7.072;2023-04-25T00:31:00;8.40;99.90
14236;DHT22;7202;50.718;7.072;2023-04-25T00:33:30;8.40;99.90
14236;DHT22;7202;50.718;7.072;2023-04-25T00:35:59;8.30;99.90
14236;DHT22;7202;50.718;7.072;2023-04-25T00:38:28;8.30;99.90
14236;DHT22;7202;50.718;7.072;2023-04-25T00:40:57;8.30;99.90
14236;DHT22;7202;50.718;7.072;2023-04-25T00:43:26;8.20;99.90
14236;DHT22;7202;50.718;7.072;2023-04-25T00:45:55;8.20;99.90
14236;DHT22;7202;50.718;7.072;2023-04-25T00:48:25;8.10;99.90
14236;DHT22;7202;50.718;7.072;2023-04-25T00:50:56;8.10;99.90
14236;DHT22;7202;50.718;7.072;2023-04-25T00:53:27;8.10;99.90
14236;DHT22;7202;50.718;7.072;2023-04-25T00:55:56;8.00;99.90
14236;DHT22;7202;50.718;7.072;2023-04-25T00:58:25;8.00;99.90
14236;DHT22;7202;50.718;7.072;2023-04-25T01:00:55;8.00;99.90
14236;DHT22;7202;50.718;7.072;2023-04-25T01:03:24;7.90;99.90
14236;DHT22;7202;50.718;7.072;2023-04-25T01:05:57;7.90;99.90
14236;DHT22;7202;50.718;7.072;2023-04-25T01:08:26;7.90;99.90
14236;DHT22;7202;50.718;7.072;2023-04-25T01:10:55;7.80;99.90
14236;DHT22;7202;50.718;7.072;2023-04-25T01:13:23;7.80;99.90
14236;DHT22;7202;50.718;7.072;2023-04-25T01:15:52;7.80;99.90
14236;DHT22;7202;50.718;7.072;2023-04-25T01:18:21;7.80;99.90
14236;DHT22;7202;50.718;7.072;2023-04-25T01:20:51;7.70;99.90
14236;DHT22;7202;50.718;7.072;2023-04-25T01:23:23;7.70;99.90
14236;DHT22;7202;50.718;7.072;2023-04-25T01:25:52;7.70;99.90
14236;DHT22;7202;50.718;7.072;2023-04-25T01:28:22;7.60;99.90
14236;DHT22;7202;50.718;7.072;2023-04-25T01:30:51;7.60;99.90
14236;DHT22;7202;50.718;7.072;2023-04-25T01:33:22;7.60;99.90
14236;DHT22;7202;50.718;7.072;2023-04-25T01:35:50;7.60;99.90
14236;DHT22;7202;50.718;7.072;2023-04-25T01:38:21;7.60;99.90
14236;DHT22;7202;50.718;7.072;2023-04-25T01:40:51;7.60;99.90
14236;DHT22;7202;50.718;7.072;2023-04-25T01:43:21;7.60;99.90
14236;DHT22;7202;50.718;7.072;2023-04-25T01:45:50;7.50;99.90
14236;DHT22;7202;50.718;7.072;2023-04-25T01:48:19;7.50;99.90
14236;DHT22;7202;50.718;7.072;2023-04-25T01:50:48;7.40;99.90
14236;DHT22;7202;50.718;7.072;2023-04-25T01:53:18;7.40;99.90
14236;DHT22;7202;50.718;7.072;2023-04-25T01:55:48;7.40;99.90
14236;DHT22;7202;50.718;7.072;2023-04-25T01:58:20;7.40;99.90
14236;DHT22;7202;50.718;7.072;2023-04-25T02:01:07;7.30;99.90
14236;DHT22;7202;50.718;7.072;2023-04-25T02:03:43;7.30;99.90
14236;DHT22;7202;50.718;7.072;2023-04-25T02:06:27;7.30;99.90
14236;DHT22;7202;50.718;7.072;2023-04-25T02:08:57;7.30;99.90
14236;DHT22;7202;50.718;7.072;2023-04-25T02:11:27;7.40;99.90
14236;DHT22;7202;50.718;7.072;2023-04-25T02:14:16;7.30;99.90
14236;DHT22;7202;50.718;7.072;2023-04-25T02:17:14;7.20;99.90
14236;DHT22;7202;50.718;7.072;2023-04-25T02:19:44;7.20;99.90
14236;DHT22;7202;50.718;7.072;2023-04-25T02:22:13;7.20;99.90
14236;DHT22;7202;50.718;7.072;2023-04-25T02:24:41;7.20;99.90
14236;DHT22;7202;50.718;7.072;2023-04-25T02:27:11;7.10;99.90
14236;DHT22;7202;50.718;7.072;2023-04-25T02:29:40;7.10;99.90
14236;DHT22;7202;50.718;7.072;2023-04-25T02:32:11;7.10;99.90
14236;DHT22;7202;50.718;7.072;2023-04-25T02:34:40;7.00;99.90
14236;DHT22;7202;50.718;7.072;2023-04-25T02:37:09;7.00;99.90
14236;DHT22;7202;50.718;7.072;2023-04-25T02:39:37;7.00;99.90
14236;DHT22;7202;50.718;7.072;2023-04-25T02:42:06;7.00;99.90
14236;DHT22;7202;50.718;7.072;2023-04-25T02:44:36;7.00;99.90
14236;DHT22;7202;50.718;7.072;2023-04-25T02:47:05;6.90;99.90
14236;DHT22;7202;50.718;7.072;2023-04-25T02:49:34;6.90;99.90
14236;DHT22;7202;50.718;7.072;2023-04-25T02:52:03;6.90;99.90
14236;DHT22;7202;50.718;7.072;2023-04-25T02:54:31;6.90;99.90
14236;DHT22;7202;50.718;7.072;2023-04-25T02:57:00;6.90;99.90
14236;DHT22;7202;50.718;7.072;2023-04-25T02:59:36;6.90;99.90
14236;DHT22;7202;50.718;7.072;2023-04-25T03:02:05;6.80;99.90
14236;DHT22;7202;50.718;7.072;2023-04-25T03:04:33;6.90;99.90
14236;DHT22;7202;50.718;7.072;2023-04-25T03:07:02;6.80;99.90
14236;DHT22;7202;50.718;7.072;2023-04-25T03:09:31;6.80;99.90
14236;DHT22;7202;50.718;7.072;2023-04-25T03:12:00;6.80;99.90
14236;DHT22;7202;50.718;7.072;2023-04-25T03:14:28;6.80;99.90
14236;DHT22;7202;50.718;7.072;2023-04-25T03:16:58;6.80;99.90
14236;DHT22;7202;50.718;7.072;2023-04-25T03:19:27;6.70;99.90
14236;DHT22;7202;50.718;7.072;2023-04-25T03:21:56;6.70;99.90
14236;DHT22;7202;50.718;7.072;2023-04-25T03:24:25;6.70;99.90
14236;DHT22;7202;50.718;7.072;2023-04-25T03:26:54;6.70;99.90
14236;DHT22;7202;50.718;7.072;2023-04-25T03:29:22;6.70;99.90
14236;DHT22;7202;50.718;7.072;2023-04-25T03:31:54;6.70;99.90
14236;DHT22;7202;50.718;7.072;2023-04-25T03:34:24;6.70;99.90
14236;DHT22;7202;50.718;7.072;2023-04-25T03:36:53;6.70;99.90
14236;DHT22;7202;50.718;7.072;2023-04-25T03:39:22;6.70;99.90
14236;DHT22;7202;50.718;7.072;2023-04-25T03:41:52;6.70;99.90
14236;DHT22;7202;50.718;7.072;2023-04-25T03:44:21;6.60;99.90
14236;DHT22;7202;50.718;7.072;2023-04-25T03:46:50;6.70;99.90
14236;DHT22;7202;50.718;7.072;2023-04-25T03:49:18;6.60;99.90
14236;DHT22;7202;50.718;7.072;2023-04-25T03:51:58;6.70;99.90
14236;DHT22;7202;50.718;7.072;2023-04-25T03:54:30;6.70;99.90
14236;DHT22;7202;50.718;7.072;2023-04-25T03:57:04;6.70;99.90
14236;DHT22;7202;50.718;7.072;2023-04-25T03:59:36;6.80;99.90
14236;DHT22;7202;50.718;7.072;2023-04-25T04:02:07;6.80;99.90
14236;DHT22;7202;50.718;7.072;2023-04-25T04:04:36;6.80;99.90
14236;DHT22;7202;50.718;7.072;2023-04-25T04:07:07;6.80;99.90
14236;DHT22;7202;50.718;7.072;2023-04-25T04:09:39;6.80;99.90
14236;DHT22;7202;50.718;7.072;2023-04-25T04:12:13;6.90;99.90
14236;DHT22;7202;50.718;7.072;2023-04-25T04:14:42;6.90;99.90
14236;DHT22;7202;50.718;7.072;2023-04-25T04:17:10;6.90;99.90
14236;DHT22;7202;50.718;7.072;2023-04-25T04:19:39;6.90;99.90
14236;DHT22;7202;50.718;7.072;2023-04-25T04:22:12;6.90;99.90
14236;DHT22;7202;50.718;7.072;2023-04-25T04:24:41;6.90;99.90
14236;DHT22;7202;50.718;7.072;2023-04-25T04:27:12;6.90;99.90
14236;DHT22;7202;50.718;7.072;2023-04-25T04:30:08;6.90;99.90
14236;DHT22;7202;50.718;7.072;2023-04-25T04:32:46;6.90;99.90
14236;DHT22;7202;50.718;7.072;2023-04-25T04:35:17;6.90;99.90
14236;DHT22;7202;50.718;7.072;2023-04-25T04:37:48;7.00;99.90
14236;DHT22;7202;50.718;7.072;2023-04-25T04:40:18;7.00;99.90
14236;DHT22;7202;50.718;7.072;2023-04-25T04:43:08;6.90;99.90
14236;DHT22;7202;50.718;7.072;2023-04-25T04:45:56;7.00;99.90
14236;DHT22;7202;50.718;7.072;2023-04-25T04:48:52;7.00;99.90
14236;DHT22;7202;50.718;7.072;2023-04-25T04:51:41;7.00;99.90
14236;DHT22;7202;50.718;7.072;2023-04-25T04:54:30;7.00;99.90
14236;DHT22;7202;50.718;7.072;2023-04-25T04:57:32;7.00;99.90
14236;DHT22;7202;50.718;7.072;2023-04-25T05:00:13;7.00;99.90
14236;DHT22;7202;50.718;7.072;2023-04-25T05:03:07;7.10;99.90
14236;DHT22;7202;50.718;7.072;2023-04-25T05:06:03;7.10;99.90
14236;DHT22;7202;50.718;7.072;2023-04-25T05:08:43;7.10;99.90
14236;DHT22;7202;50.718;7.072;2023-04-25T05:11:42;7.10;99.90
14236;DHT22;7202;50.718;7.072;2023-04-25T05:14:38;7.10;99.90
14236;DHT22;7202;50.718;7.072;2023-04-25T05:17:16;7.20;99.90
14236;DHT22;7202;50.718;7.072;2023-04-25T05:20:04;7.20;99.90
14236;DHT22;7202;50.718;7.072;2023-04-25T05:22:54;7.30;99.90
14236;DHT22;7202;50.718;7.072;2023-04-25T05:25:41;7.30;99.90
14236;DHT22;7202;50.718;7.072;2023-04-25T05:28:37;7.40;99.90
14236;DHT22;7202;50.718;7.072;2023-04-25T05:31:23;7.40;99.90
14236;DHT22;7202;50.718;7.072;2023-04-25T05:34:00;7.50;99.90
14236;DHT22;7202;50.718;7.072;2023-04-25T05:36:40;7.50;99.90
14236;DHT22;7202;50.718;7.072;2023-04-25T05:39:08;7.50;99.90
14236;DHT22;7202;50.718;7.072;2023-04-25T05:42:16;7.60;99.90
14236;DHT22;7202;50.718;7.072;2023-04-25T05:44:54;7.60;99.90
14236;DHT22;7202;50.718;7.072;2023-04-25T05:47:30;7.60;99.90
14236;DHT22;7202;50.718;7.072;2023-04-25T05:50:17;7.70;99.90
14236;DHT22;7202;50.718;7.072;2023-04-25T05:52:53;7.70;99.90
14236;DHT22;7202;50.718;7.072;2023-04-25T05:55:29;7.60;99.90
14236;DHT22;7202;50.718;7.072;2023-04-25T05:58:00;7.70;99.90
14236;DHT22;7202;50.718;7.072;2023-04-25T06:00:30;7.70;99.90
14236;DHT22;7202;50.718;7.072;2023-04-25T06:02:59;7.70;99.90
14236;DHT22;7202;50.718;7.072;2023-04-25T06:05:28;7.70;99.90
14236;DHT22;7202;50.718;7.072;2023-04-25T06:07:59;7.80;99.90
14236;DHT22;7202;50.718;7.072;2023-04-25T06:10:27;7.80;99.90
14236;DHT22;7202;50.718;7.072;2023-04-25T06:12:56;7.90;99.90
14236;DHT22;7202;50.718;7.072;2023-04-25T06:15:25;7.90;99.90
14236;DHT22;7202;50.718;7.072;2023-04-25T06:17:57;8.00;99.90
14236;DHT22;7202;50.718;7.072;2023-04-25T06:20:26;8.00;99.90
14236;DHT22;7202;50.718;7.072;2023-04-25T06:22:57;8.10;99.90
14236;DHT22;7202;50.718;7.072;2023-04-25T06:26:01;8.10;99.90
14236;DHT22;7202;50.718;7.072;2023-04-25T06:28:31;8.20;99.90
14236;DHT22;7202;50.718;7.072;2023-04-25T06:31:01;8.30;99.90
14236;DHT22;7202;50.718;7.072;2023-04-25T06:33:31;8.30;99.90
14236;DHT22;7202;50.718;7.072;2023-04-25T06:36:00;8.30;99.90
14236;DHT22;7202;50.718;7.072;2023-04-25T06:38:29;8.40;99.90
14236;DHT22;7202;50.718;7.072;2023-04-25T06:40:58;8.50;99.90
14236;DHT22;7202;50.718;7.072;2023-04-25T06:43:30;8.50;99.90
14236;DHT22;7202;50.718;7.072;2023-04-25T06:46:23;8.60;99.90
14236;DHT22;7202;50.718;7.072;2023-04-25T06:48:55;8.70;99.90
14236;DHT22;7202;50.718;7.072;2023-04-25T06:51:24;8.80;99.90
14236;DHT22;7202;50.718;7.072;2023-04-25T06:53:56;8.90;99.90
14236;DHT22;7202;50.718;7.072;2023-04-25T06:56:30;9.00;99.90
14236;DHT22;7202;50.718;7.072;2023-04-25T06:59:05;9.10;99.90
14236;DHT22;7202;50.718;7.072;2023-04-25T07:01:36;9.20;99.90
14236;DHT22;7202;50.718;7.072;2023-04-25T07:04:11;9.30;99.90
14236;DHT22;7202;50.718;7.072;2023-04-25T07:06:45;9.40;99.90
14236;DHT22;7202;50.718;7.072;2023-04-25T07:09:18;9.60;99.90
14236;DHT22;7202;50.718;7.072;2023-04-25T07:11:49;9.60;99.90
14236;DHT22;7202;50.718;7.072;2023-04-25T07:14:17;9.60;99.90
14236;DHT22;7202;50.718;7.072;2023-04-25T07:16:46;9.40;99.90
14236;DHT22;7202;50.718;7.072;2023-04-25T07:19:16;9.40;99.90
14236;DHT22;7202;50.718;7.072;2023-04-25T07:21:44;9.30;99.90
14236;DHT22;7202;50.718;7.072;2023-04-25T07:24:13;9.20;99.90
14236;DHT22;7202;50.718;7.072;2023-04-25T07:26:45;9.20;99.90
14236;DHT22;7202;50.718;7.072;2023-04-25T07:29:26;9.20;99.90
14236;DHT22;7202;50.718;7.072;2023-04-25T07:31:55;9.10;99.90
14236;DHT22;7202;50.718;7.072;2023-04-25T07:34:25;9.10;99.90
14236;DHT22;7202;50.718;7.072;2023-04-25T07:36:54;9.20;99.90
14236;DHT22;7202;50.718;7.072;2023-04-25T07:39:25;9.20;99.90
14236;DHT22;7202;50.718;7.072;2023-04-25T07:41:54;9.20;99.90
14236;DHT22;7202;50.718;7.072;2023-04-25T07:44:28;9.20;99.90
14236;DHT22;7202;50.718;7.072;2023-04-25T07:46:57;9.30;99.90
14236;DHT22;7202;50.718;7.072;2023-04-25T07:49:32;9.30;99.90
14236;DHT22;7202;50.718;7.072;2023-04-25T07:52:01;9.40;99.90
14236;DHT22;7202;50.718;7.072;2023-04-25T07:54:30;9.30;99.90
14236;DHT22;7202;50.718;7.072;2023-04-25T07:57:04;9.40;99.90
14236;DHT22;7202;50.718;7.072;2023-04-25T07:59:35;9.50;99.90
14236;DHT22;7202;50.718;7.072;2023-04-25T08:02:04;9.60;99.90
14236;DHT22;7202;50.718;7.072;2023-04-25T08:04:35;9.70;99.90
14236;DHT22;7202;50.718;7.072;2023-04-25T08:07:07;9.80;99.90
14236;DHT22;7202;50.718;7.072;2023-04-25T08:09:48;9.80;99.90
14236;DHT22;7202;50.718;7.072;2023-04-25T08:12:24;9.80;99.90
14236;DHT22;7202;50.718;7.072;2023-04-25T08:14:53;9.90;99.90
14236;DHT22;7202;50.718;7.072;2023-04-25T08:17:24;9.90;99.90
14236;DHT22;7202;50.718;7.072;2023-04-25T08:19:54;9.90;99.90
14236;DHT22;7202;50.718;7.072;2023-04-25T08:22:29;9.90;99.90
14236;DHT22;7202;50.718;7.072;2023-04-25T08:25:14;9.90;99.90
14236;DHT22;7202;50.718;7.072;2023-04-25T08:27:43;9.80;99.90
14236;DHT22;7202;50.718;7.072;2023-04-25T08:30:12;9.80;99.90
14236;DHT22;7202;50.718;7.072;2023-04-25T08:32:42;9.80;99.90
14236;DHT22;7202;50.718;7.072;2023-04-25T08:35:27;9.70;99.90
14236;DHT22;7202;50.718;7.072;2023-04-25T08:37:56;9.60;99.90
14236;DHT22;7202;50.718;7.072;2023-04-25T08:40:27;9.60;99.90
14236;DHT22;7202;50.718;7.072;2023-04-25T08:43:03;9.50;99.90
14236;DHT22;7202;50.718;7.072;2023-04-25T08:45:35;9.50;99.90
14236;DHT22;7202;50.718;7.072;2023-04-25T08:48:05;9.40;99.90
14236;DHT22;7202;50.718;7.072;2023-04-25T08:50:39;9.40;99.90
14236;DHT22;7202;50.718;7.072;2023-04-25T08:53:09;9.40;99.90
14236;DHT22;7202;50.718;7.072;2023-04-25T08:55:41;9.20;99.90
14236;DHT22;7202;50.718;7.072;2023-04-25T08:58:11;9.20;99.90
14236;DHT22;7202;50.718;7.072;2023-04-25T09:00:40;9.20;99.90
14236;DHT22;7202;50.718;7.072;2023-04-25T09:03:08;9.30;99.90
14236;DHT22;7202;50.718;7.072;2023-04-25T09:05:39;9.40;99.90
14236;DHT22;7202;50.718;7.072;2023-04-25T09:08:11;9.40;99.90
14236;DHT22;7202;50.718;7.072;2023-04-25T09:10:41;9.50;99.90
14236;DHT22;7202;50.718;7.072;2023-04-25T09:13:12;9.70;99.90
14236;DHT22;7202;50.718;7.072;2023-04-25T09:16:00;9.80;99.90
14236;DHT22;7202;50.718;7.072;2023-04-25T09:18:38;10.10;99.90
14236;DHT22;7202;50.718;7.072;2023-04-25T09:21:10;10.20;99.90
14236;DHT22;7202;50.718;7.072;2023-04-25T09:23:46;10.30;99.90
14236;DHT22;7202;50.718;7.072;2023-04-25T09:26:15;10.30;99.90
14236;DHT22;7202;50.718;7.072;2023-04-25T09:28:46;10.40;99.90
14236;DHT22;7202;50.718;7.072;2023-04-25T09:31:21;10.40;99.90
14236;DHT22;7202;50.718;7.072;2023-04-25T09:33:59;10.40;99.90
14236;DHT22;7202;50.718;7.072;2023-04-25T09:36:34;10.40;99.90
14236;DHT22;7202;50.718;7.072;2023-04-25T09:39:23;10.40;99.90
14236;DHT22;7202;50.718;7.072;2023-04-25T09:42:04;10.40;99.90
14236;DHT22;7202;50.718;7.072;2023-04-25T09:44:35;10.30;99.90
14236;DHT22;7202;50.718;7.072;2023-04-25T09:47:04;10.20;99.90
14236;DHT22;7202;50.718;7.072;2023-04-25T09:49:33;10.20;99.90
14236;DHT22;7202;50.718;7.072;2023-04-25T09:52:07;10.20;99.90
14236;DHT22;7202;50.718;7.072;2023-04-25T09:54:51;10.20;99.90
14236;DHT22;7202;50.718;7.072;2023-04-25T09:57:26;10.30;99.90
14236;DHT22;7202;50.718;7.072;2023-04-25T09:59:57;10.30;99.90
14236;DHT22;7202;50.718;7.072;2023-04-25T10:02:42;10.40;99.90
14236;DHT22;7202;50.718;7.072;2023-04-25T10:05:19;10.50;99.90
14236;DHT22;7202;50.718;7.072;2023-04-25T10:07:49;10.60;99.90
14236;DHT22;7202;50.718;7.072;2023-04-25T10:10:18;10.70;99.90
14236;DHT22;7202;50.718;7.072;2023-04-25T10:12:50;10.80;99.90
14236;DHT22;7202;50.718;7.072;2023-04-25T10:15:19;10.90;99.90
14236;DHT22;7202;50.718;7.072;2023-04-25T10:17:49;10.90;99.90
14236;DHT22;7202;50.718;7.072;2023-04-25T10:20:18;10.90;99.90
14236;DHT22;7202;50.718;7.072;2023-04-25T10:22:50;10.90;99.90
14236;DHT22;7202;50.718;7.072;2023-04-25T10:25:23;10.80;99.90
14236;DHT22;7202;50.718;7.072;2023-04-25T10:27:53;10.70;99.90
14236;DHT22;7202;50.718;7.072;2023-04-25T10:30:21;10.60;99.90
14236;DHT22;7202;50.718;7.072;2023-04-25T10:32:50;10.60;99.90
14236;DHT22;7202;50.718;7.072;2023-04-25T10:35:24;10.60;99.90
14236;DHT22;7202;50.718;7.072;2023-04-25T10:38:09;10.60;99.90
14236;DHT22;7202;50.718;7.072;2023-04-25T10:40:39;10.60;99.90
14236;DHT22;7202;50.718;7.072;2023-04-25T10:43:39;10.70;99.90
14236;DHT22;7202;50.718;7.072;2023-04-25T10:46:19;10.70;99.90
14236;DHT22;7202;50.718;7.072;2023-04-25T10:48:49;10.80;99.90
14236;DHT22;7202;50.718;7.072;2023-04-25T10:51:21;10.90;99.90
14236;DHT22;7202;50.718;7.072;2023-04-25T10:54:00;10.80;99.90
14236;DHT22;7202;50.718;7.072;2023-04-25T10:56:30;10.80;99.90
14236;DHT22;7202;50.718;7.072;2023-04-25T10:59:07;10.70;99.90
14236;DHT22;7202;50.718;7.072;2023-04-25T11:01:39;10.60;99.90
14236;DHT22;7202;50.718;7.072;2023-04-25T11:04:19;10.50;99.90
14236;DHT22;7202;50.718;7.072;2023-04-25T11:07:00;10.50;99.90
14236;DHT22;7202;50.718;7.072;2023-04-25T11:09:37;10.40;99.90
14236;DHT22;7202;50.718;7.072;2023-04-25T11:12:08;10.40;99.90
14236;DHT22;7202;50.718;7.072;2023-04-25T11:14:39;10.50;99.90
14236;DHT22;7202;50.718;7.072;2023-04-25T11:17:12;10.50;99.90
14236;DHT22;7202;50.718;7.072;2023-04-25T11:19:41;10.70;99.90
14236;DHT22;7202;50.718;7.072;2023-04-25T11:22:10;10.80;99.90
14236;DHT22;7202;50.718;7.072;2023-04-25T11:24:40;11.00;99.90
14236;DHT22;7202;50.718;7.072;2023-04-25T11:27:10;11.20;99.90
14236;DHT22;7202;50.718;7.072;2023-04-25T11:29:38;11.40;99.90
14236;DHT22;7202;50.718;7.072;2023-04-25T11:32:07;11.60;99.90
14236;DHT22;7202;50.718;7.072;2023-04-25T11:34:36;11.60;99.90
14236;DHT22;7202;50.718;7.072;2023-04-25T11:37:05;11.80;99.90
14236;DHT22;7202;50.718;7.072;2023-04-25T11:39:34;11.80;99.90
14236;DHT22;7202;50.718;7.072;2023-04-25T11:42:04;11.80;99.90
14236;DHT22;7202;50.718;7.072;2023-04-25T11:44:35;11.70;99.90
14236;DHT22;7202;50.718;7.072;2023-04-25T11:47:03;11.50;99.90
14236;DHT22;7202;50.718;7.072;2023-04-25T11:49:32;11.30;99.90
14236;DHT22;7202;50.718;7.072;2023-04-25T11:52:02;11.10;99.90
14236;DHT22;7202;50.718;7.072;2023-04-25T11:54:31;11.00;99.90
14236;DHT22;7202;50.718;7.072;2023-04-25T11:57:00;10.90;99.90
14236;DHT22;7202;50.718;7.072;2023-04-25T11:59:30;10.70;99.90
14236;DHT22;7202;50.718;7.072;2023-04-25T12:01:59;10.50;99.90
14236;DHT22;7202;50.718;7.072;2023-04-25T12:04:30;10.50;99.90
14236;DHT22;7202;50.718;7.072;2023-04-25T12:07:00;10.40;99.90
14236;DHT22;7202;50.718;7.072;2023-04-25T12:09:30;10.40;99.90
14236;DHT22;7202;50.718;7.072;2023-04-25T12:12:00;10.40;99.90
14236;DHT22;7202;50.718;7.072;2023-04-25T12:14:34;10.40;99.90
14236;DHT22;7202;50.718;7.072;2023-04-25T12:17:04;10.40;99.90
14236;DHT22;7202;50.718;7.072;2023-04-25T12:19:37;10.50;99.90
14236;DHT22;7202;50.718;7.072;2023-04-25T12:22:20;10.60;99.90
14236;DHT22;7202;50.718;7.072;2023-04-25T12:24:49;10.70;99.90
14236;DHT22;7202;50.718;7.072;2023-04-25T12:27:20;10.70;99.90
14236;DHT22;7202;50.718;7.072;2023-04-25T12:29:54;10.80;99.90
14236;DHT22;7202;50.718;7.072;2023-04-25T12:32:23;10.80;99.90
14236;DHT22;7202;50.718;7.072;2023-04-25T12:34:52;10.80;99.90
14236;DHT22;7202;50.718;7.072;2023-04-25T12:37:21;10.90;99.90
14236;DHT22;7202;50.718;7.072;2023-04-25T12:39:49;10.90;99.90
14236;DHT22;7202;50.718;7.072;2023-04-25T12:42:18;10.80;99.90
14236;DHT22;7202;50.718;7.072;2023-04-25T12:44:47;10.80;99.90
14236;DHT22;7202;50.718;7.072;2023-04-25T12:47:17;10.70;99.90
14236;DHT22;7202;50.718;7.072;2023-04-25T12:49:45;10.70;99.90
14236;DHT22;7202;50.718;7.072;2023-04-25T12:52:14;10.80;99.90
14236;DHT22;7202;50.718;7.072;2023-04-25T12:54:44;10.90;99.90
14236;DHT22;7202;50.718;7.072;2023-04-25T12:57:13;11.10;99.90
14236;DHT22;7202;50.718;7.072;2023-04-25T12:59:41;11.40;99.90
14236;DHT22;7202;50.718;7.072;2023-04-25T13:02:10;11.60;99.90
14236;DHT22;7202;50.718;7.072;2023-04-25T13:04:40;11.80;99.90
14236;DHT22;7202;50.718;7.072;2023-04-25T13:07:09;12.10;99.90
14236;DHT22;7202;50.718;7.072;2023-04-25T13:09:38;12.30;99.90
14236;DHT22;7202;50.718;7.072;2023-04-25T13:12:06;12.50;99.90
14236;DHT22;7202;50.718;7.072;2023-04-25T13:14:35;12.60;99.90
14236;DHT22;7202;50.718;7.072;2023-04-25T13:17:03;12.60;99.90
14236;DHT22;7202;50.718;7.072;2023-04-25T13:19:32;12.60;99.90
14236;DHT22;7202;50.718;7.072;2023-04-25T13:22:02;12.60;99.90
14236;DHT22;7202;50.718;7.072;2023-04-25T13:24:31;12.50;99.90
14236;DHT22;7202;50.718;7.072;2023-04-25T13:27:00;12.40;99.90
14236;DHT22;7202;50.718;7.072;2023-04-25T13:29:30;12.20;99.90
14236;DHT22;7202;50.718;7.072;2023-04-25T13:32:02;12.10;99.90
14236;DHT22;7202;50.718;7.072;2023-04-25T13:34:31;11.90;99.90
14236;DHT22;7202;50.718;7.072;2023-04-25T13:36:59;11.80;99.90
14236;DHT22;7202;50.718;7.072;2023-04-25T13:39:30;11.60;99.90
14236;DHT22;7202;50.718;7.072;2023-04-25T13:41:58;11.40;99.90
14236;DHT22;7202;50.718;7.072;2023-04-25T13:44:27;11.30;99.90
14236;DHT22;7202;50.718;7.072;2023-04-25T13:46:56;11.30;99.90
14236;DHT22;7202;50.718;7.072;2023-04-25T13:49:24;11.20;99.90
14236;DHT22;7202;50.718;7.072;2023-04-25T13:51:53;11.10;99.90
14236;DHT22;7202;50.718;7.072;2023-04-25T13:54:21;11.00;99.90
14236;DHT22;7202;50.718;7.072;2023-04-25T13:56:51;11.00;99.90
14236;DHT22;7202;50.718;7.072;2023-04-25T13:59:22;10.90;99.90
14236;DHT22;7202;50.718;7.072;2023-04-25T14:01:51;10.90;99.90
14236;DHT22;7202;50.718;7.072;2023-04-25T14:04:20;10.80;99.90
14236;DHT22;7202;50.718;7.072;2023-04-25T14:06:48;10.80;99.90
14236;DHT22;7202;50.718;7.072;2023-04-25T14:09:19;10.80;99.90
14236;DHT22;7202;50.718;7.072;2023-04-25T14:11:48;10.80;99.90
14236;DHT22;7202;50.718;7.072;2023-04-25T14:14:18;10.90;99.90
14236;DHT22;7202;50.718;7.072;2023-04-25T14:16:47;10.90;99.90
14236;DHT22;7202;50.718;7.072;2023-04-25T14:19:16;10.90;99.90
14236;DHT22;7202;50.718;7.072;2023-04-25T14:21:48;10.90;99.90
14236;DHT22;7202;50.718;7.072;2023-04-25T14:24:17;11.00;99.90
14236;DHT22;7202;50.718;7.072;2023-04-25T14:26:45;10.90;99.90
14236;DHT22;7202;50.718;7.072;2023-04-25T14:29:14;11.00;99.90
14236;DHT22;7202;50.718;7.072;2023-04-25T14:31:44;11.00;99.90
14236;DHT22;7202;50.718;7.072;2023-04-25T14:34:13;11.00;99.90
14236;DHT22;7202;50.718;7.072;2023-04-25T14:36:41;11.00;99.90
14236;DHT22;7202;50.718;7.072;2023-04-25T14:39:10;11.00;99.90
14236;DHT22;7202;50.718;7.072;2023-04-25T14:41:39;11.10;99.90
14236;DHT22;7202;50.718;7.072;2023-04-25T14:44:08;11.10;99.90
14236;DHT22;7202;50.718;7.072;2023-04-25T14:46:38;11.30;99.90
14236;DHT22;7202;50.718;7.072;2023-04-25T14:49:08;11.40;99.90
14236;DHT22;7202;50.718;7.072;2023-04-25T14:51:36;11.60;99.90
14236;DHT22;7202;50.718;7.072;2023-04-25T14:54:05;11.70;99.90
14236;DHT22;7202;50.718;7.072;2023-04-25T14:56:34;11.80;99.90
14236;DHT22;7202;50.718;7.072;2023-04-25T14:59:02;11.80;99.90
14236;DHT22;7202;50.718;7.072;2023-04-25T15:01:31;11.80;99.90
14236;DHT22;7202;50.718;7.072;2023-04-25T15:04:00;11.70;99.90
14236;DHT22;7202;50.718;7.072;2023-04-25T15:06:30;11.70;99.90
14236;DHT22;7202;50.718;7.072;2023-04-25T15:08:59;11.60;99.90
14236;DHT22;7202;50.718;7.072;2023-04-25T15:11:27;11.60;99.90
14236;DHT22;7202;50.718;7.072;2023-04-25T15:13:56;11.60;99.90
14236;DHT22;7202;50.718;7.072;2023-04-25T15:16:25;11.60;99.90
14236;DHT22;7202;50.718;7.072;2023-04-25T15:18:54;11.60;99.90
14236;DHT22;7202;50.718;7.072;2023-04-25T15:21:22;11.50;99.90
14236;DHT22;7202;50.718;7.072;2023-04-25T15:23:53;11.40;99.90
14236;DHT22;7202;50.718;7.072;2023-04-25T15:26:22;11.40;99.90
14236;DHT22;7202;50.718;7.072;2023-04-25T15:28:51;11.40;99.90
14236;DHT22;7202;50.718;7.072;2023-04-25T15:31:19;11.40;99.90
14236;DHT22;7202;50.718;7.072;2023-04-25T15:33:48;11.40;99.90
14236;DHT22;7202;50.718;7.072;2023-04-25T15:36:18;11.40;99.90
14236;DHT22;7202;50.718;7.072;2023-04-25T15:38:47;11.50;99.90
14236;DHT22;7202;50.718;7.072;2023-04-25T15:41:18;11.50;99.90
14236;DHT22;7202;50.718;7.072;2023-04-25T15:43:47;11.50;99.90
14236;DHT22;7202;50.718;7.072;2023-04-25T15:46:16;11.50;99.90
14236;DHT22;7202;50.718;7.072;2023-04-25T15:48:45;11.50;99.90
14236;DHT22;7202;50.718;7.072;2023-04-25T15:51:14;11.50;99.90
14236;DHT22;7202;50.718;7.072;2023-04-25T15:53:43;11.40;99.90
14236;DHT22;7202;50.718;7.072;2023-04-25T15:56:12;11.50;99.90
14236;DHT22;7202;50.718;7.072;2023-04-25T15:58:42;11.50;99.90
14236;DHT22;7202;50.718;7.072;2023-04-25T16:01:10;11.50;99.90
14236;DHT22;7202;50.718;7.072;2023-04-25T16:03:40;11.50;99.90
14236;DHT22;7202;50.718;7.072;2023-04-25T16:06:08;11.50;99.90
14236;DHT22;7202;50.718;7.072;2023-04-25T16:08:37;11.50;99.90
14236;DHT22;7202;50.718;7.072;2023-04-25T16:11:06;11.40;99.90
14236;DHT22;7202;50.718;7.072;2023-04-25T16:13:35;11.40;99.90
14236;DHT22;7202;50.718;7.072;2023-04-25T16:16:05;11.50;99.90
14236;DHT22;7202;50.718;7.072;2023-04-25T16:18:34;11.50;99.90
14236;DHT22;7202;50.718;7.072;2023-04-25T16:21:03;11.60;99.90
14236;DHT22;7202;50.718;7.072;2023-04-25T16:23:32;11.60;99.90
14236;DHT22;7202;50.718;7.072;2023-04-25T16:26:01;11.70;99.90